Time;durP1;ratioP1;P1;durP2;ratioP2;P2;SDS_P1;SDS_P2;PMS_P1;PMS_P2;Temp;Humidity;BMP_temperature;BMP_pressure;BME280_temperature;BME280_humidity;BME280_pressure;Samples;Min_cycle;Max_cycle;Signal;HPM_P1;HPM_P2
2022/06/22 00:00:38;;;;;;;;;9.20;8.40;;;;;24.64;42.97;100492.38;2059256;28;75015;-63
2022/06/22 00:02:01;;;;;;;;;10.00;10.00;;;;;24.64;42.64;100484.22;2055924;28;76292;-63
2022/06/22 00:03:05;;;;;;;;;12.40;10.40;;;;;24.64;43.06;100481.53;2058877;28;75881;-63
2022/06/22 00:04:14;;;;;;;;;8.40;8.40;;;;;24.63;42.95;100487.06;2059211;28;74941;-63
2022/06/22 00:05:18;;;;;;;;;10.20;10.20;;;;;24.62;42.88;100485.34;2059299;28;76571;-63
2022/06/22 00:06:36;;;;;;;;;11.00;10.00;;;;;24.61;43.19;100484.50;2059969;28;76149;-63
2022/06/22 00:07:45;;;;;;;;;10.40;9.40;;;;;24.60;42.90;100485.50;2059373;28;76123;-62
2022/06/22 00:08:52;;;;;;;;;10.00;9.20;;;;;24.59;42.83;100482.91;2059756;28;75959;-62
2022/06/22 00:10:15;;;;;;;;;10.00;10.00;;;;;24.57;43.04;100488.47;2059725;28;76213;-62
2022/06/22 00:11:16;;;;;;;;;12.25;10.00;;;;;24.56;43.17;100478.59;2002713;28;1125134;-63
2022/06/22 00:12:22;;;;;;;;;10.50;10.50;;;;;24.57;43.61;100482.19;2036727;28;45116;-62
2022/06/22 00:13:25;;;;;;;;;8.40;8.40;;;;;24.56;43.28;100483.19;2034064;28;75141;-63
2022/06/22 00:14:43;;;;;;;;;10.80;10.80;;;;;24.55;43.37;100485.03;2043455;28;76399;-62
2022/06/22 00:15:50;;;;;;;;;9.40;9.40;;;;;24.54;43.05;100479.72;2042626;28;75462;-62
2022/06/22 00:16:53;;;;;;;;;11.40;11.00;;;;;24.51;43.39;100480.81;2042291;28;75018;-62
2022/06/22 00:17:53;;;;;;;;;11.60;9.60;;;;;24.49;43.22;100473.81;2043880;28;74877;-62
2022/06/22 00:18:56;;;;;;;;;10.00;9.25;;;;;24.48;43.29;100474.81;2043333;28;76203;-65
2022/06/22 00:20:00;;;;;;;;;9.40;9.40;;;;;24.47;43.34;100483.94;2043838;28;74937;-63
2022/06/22 00:21:05;;;;;;;;;9.20;7.80;;;;;24.45;43.24;100478.63;2034271;28;76139;-62
2022/06/22 00:22:15;;;;;;;;;9.00;8.00;;;;;24.45;43.29;100475.06;2036988;28;75891;-62
2022/06/22 00:23:15;;;;;;;;;10.80;10.00;;;;;24.44;43.39;100474.22;2067484;28;76250;-62
2022/06/22 00:24:35;;;;;;;;;8.50;7.75;;;;;24.43;43.26;100477.06;2067693;28;76203;-63
2022/06/22 00:25:38;;;;;;;;;10.00;10.00;;;;;24.40;43.61;100478.19;2067984;28;75741;-63
2022/06/22 00:26:47;;;;;;;;;10.60;10.60;;;;;24.36;43.52;100482.09;2068111;28;75740;-62
2022/06/22 00:27:48;;;;;;;;;10.60;9.80;;;;;24.35;43.39;100483.09;2067858;28;75050;-62
2022/06/22 00:29:20;;;;;;;;;13.25;11.75;;;;;24.33;43.53;100472.38;2067987;28;74989;-62
2022/06/22 00:30:23;;;;;;;;;12.00;12.00;;;;;24.32;43.68;100469.81;2036581;28;73844;-63
2022/06/22 00:31:30;;;;;;;;;8.80;8.80;;;;;24.31;43.75;100470.78;2037457;28;76008;-62
2022/06/22 00:32:30;;;;;;;;;11.00;11.00;;;;;24.29;43.67;100476.31;2035870;28;74954;-62
2022/06/22 00:33:31;;;;;;;;;11.50;11.25;;;;;24.29;43.75;100470.88;2035875;28;75914;-62
2022/06/22 00:34:33;;;;;;;;;11.75;11.75;;;;;24.30;43.79;100467.22;2040134;28;76082;-63
2022/06/22 00:35:48;;;;;;;;;10.40;10.40;;;;;24.29;43.36;100468.19;2035344;28;75890;-63
2022/06/22 00:36:54;;;;;;;;;10.40;10.40;;;;;24.26;43.50;100468.41;2033032;28;75752;-62
2022/06/22 00:37:55;;;;;;;;;8.60;8.60;;;;;24.24;43.79;100467.69;2035855;28;76434;-62
2022/06/22 00:39:27;;;;;;;;;13.25;13.25;;;;;24.25;43.61;100469.41;2035499;28;75242;-62
2022/06/22 00:40:28;;;;;;;;;11.80;11.80;;;;;24.23;43.84;100476.81;2025780;28;73921;-62
2022/06/22 00:41:33;;;;;;;;;10.00;9.00;;;;;24.22;44.00;100468.81;2031532;28;75060;-63
2022/06/22 00:42:47;;;;;;;;;13.00;13.00;;;;;24.22;43.83;100475.09;2032208;28;75920;-62
2022/06/22 00:43:49;;;;;;;;;10.00;10.00;;;;;24.20;43.77;100473.50;2027425;28;76302;-62
2022/06/22 00:45:11;;;;;;;;;11.00;11.00;;;;;24.20;44.17;100471.63;2030267;28;75019;-62
2022/06/22 00:46:15;;;;;;;;;10.00;9.20;;;;;24.18;43.85;100470.91;2028203;28;76169;-62
2022/06/22 00:47:33;;;;;;;;;12.00;10.60;;;;;24.17;44.01;100468.34;2027840;28;75998;-62
2022/06/22 00:48:36;;;;;;;;;12.40;11.60;;;;;24.15;43.92;100462.19;2028904;28;75565;-64
2022/06/22 00:49:43;;;;;;;;;12.00;9.20;;;;;24.13;44.23;100462.28;2055141;28;76213;-61
2022/06/22 00:50:52;;;;;;;;;14.40;12.80;;;;;24.13;43.99;100464.13;2057612;28;76003;-64
2022/06/22 00:51:53;;;;;;;;;9.80;9.80;;;;;24.11;44.03;100458.84;2053756;28;75320;-63
2022/06/22 00:52:53;;;;;;;;;10.75;10.75;;;;;24.11;44.30;100464.25;2048944;28;76181;-63
2022/06/22 00:53:59;;;;;;;;;12.25;12.00;;;;;24.10;43.83;100459.81;2049289;28;76254;-62
2022/06/22 00:55:01;;;;;;;;;9.80;9.80;;;;;24.09;44.17;100468.94;2043240;28;73755;-62
2022/06/22 00:56:13;;;;;;;;;11.80;11.80;;;;;24.05;44.11;100471.06;2043537;28;74009;-62
2022/06/22 00:57:22;;;;;;;;;13.00;11.60;;;;;24.05;44.27;100476.47;2052064;28;76238;-62
2022/06/22 00:58:39;;;;;;;;;11.00;10.80;;;;;24.06;44.20;100472.78;2051750;28;74161;-62
2022/06/22 01:00:13;;;;;;;;;12.20;12.20;;;;;24.03;44.32;100473.03;2052915;28;75439;-62
2022/06/22 01:01:38;;;;;;;;;10.60;10.40;;;;;24.03;44.17;100469.47;2047232;28;75814;-62
2022/06/22 01:02:56;;;;;;;;;11.40;11.00;;;;;24.01;44.20;100469.59;2044699;28;76081;-63
2022/06/22 01:04:45;;;;;;;;;12.40;10.80;;;;;23.99;44.38;100470.69;2051373;28;75986;-62
2022/06/22 01:06:06;;;;;;;;;13.20;12.20;;;;;23.99;44.15;100467.97;2053786;28;75430;-62
2022/06/22 01:07:23;;;;;;;;;11.60;11.60;;;;;23.98;44.34;100468.97;2050047;28;75430;-62
2022/06/22 01:09:04;;;;;;;;;12.80;12.60;;;;;23.99;44.32;100467.97;2083486;28;76239;-62
2022/06/22 01:10:10;;;;;;;;;11.60;11.60;;;;;23.98;44.05;100468.97;2044722;28;75393;-62
2022/06/22 01:12:54;;;;;;;;;15.20;13.80;;;;;23.96;44.10;100473.66;2044306;28;74131;-62
2022/06/22 01:13:59;;;;;;;;;12.40;12.40;;;;;23.95;44.50;100471.94;2045325;28;74348;-62
2022/06/22 01:15:02;;;;;;;;;12.60;11.60;;;;;23.94;44.38;100472.91;2044254;28;75883;-62
2022/06/22 01:16:09;;;;;;;;;14.20;13.20;;;;;23.92;44.25;100467.63;2045059;28;75679;-62
2022/06/22 01:17:20;;;;;;;;;13.80;13.20;;;;;23.91;44.57;100471.31;2044877;28;76441;-62
2022/06/22 01:18:30;;;;;;;;;13.40;11.80;;;;;23.89;44.34;100467.88;2039190;28;74977;-62
2022/06/22 01:19:36;;;;;;;;;11.40;11.40;;;;;23.88;44.32;100463.41;2051582;28;76091;-63
2022/06/22 01:21:04;;;;;;;;;11.20;11.20;;;;;23.88;44.25;100459.84;2061252;28;76283;-62
2022/06/22 01:22:40;;;;;;;;;10.20;8.40;;;;;23.88;44.45;100465.28;2061292;28;75880;-62
2022/06/22 01:24:08;;;;;;;;;10.00;10.00;;;;;23.88;44.81;100465.28;2058238;28;76326;-62
2022/06/22 01:25:32;;;;;;;;;15.40;15.00;;;;;23.86;44.46;100467.25;2057750;28;74529;-62
2022/06/22 01:27:12;;;;;;;;;11.60;11.60;;;;;23.84;44.39;100470.09;2056036;28;76235;-62
2022/06/22 01:28:14;;;;;;;;;14.60;13.80;;;;;23.83;44.29;100468.38;2052248;28;76402;-62
2022/06/22 01:29:14;;;;;;;;;11.60;11.00;;;;;23.82;44.53;100471.19;2051477;28;75359;-63
2022/06/22 01:30:20;;;;;;;;;10.00;10.00;;;;;23.82;44.55;100465.78;2052794;28;75541;-63
2022/06/22 01:31:21;;;;;;;;;12.00;12.00;;;;;23.80;44.66;100462.34;2053823;28;73937;-62
2022/06/22 01:32:28;;;;;;;;;12.00;12.00;;;;;23.80;44.42;100467.75;2050239;28;74446;-63
2022/06/22 01:33:36;;;;;;;;;11.00;11.00;;;;;23.78;44.31;100465.19;2053224;28;76175;-62
2022/06/22 01:34:43;;;;;;;;;10.80;10.80;;;;;23.77;44.46;100463.44;2052577;28;76189;-62
2022/06/22 01:35:44;;;;;;;;;14.60;14.60;;;;;23.75;44.96;100459.97;2053024;28;75814;-62
2022/06/22 01:36:45;;;;;;;;;12.40;11.80;;;;;23.76;44.57;100456.31;2052509;28;75158;-62
2022/06/22 01:37:46;;;;;;;;;12.25;11.75;;;;;23.74;44.61;100453.69;2052662;28;75985;-62
2022/06/22 01:38:47;;;;;;;;;8.50;8.50;;;;;23.73;44.60;100453.81;2052906;28;76107;-62
2022/06/22 01:39:48;;;;;;;;;14.00;13.25;;;;;23.74;44.72;100464.53;2052967;28;74879;-63
2022/06/22 01:40:59;;;;;;;;;12.80;12.20;;;;;23.73;44.46;100457.41;2052552;28;76015;-62
2022/06/22 01:42:05;;;;;;;;;13.00;13.00;;;;;23.72;44.45;100450.25;2053278;28;76086;-62
2022/06/22 01:43:18;;;;;;;;;14.40;11.20;;;;;23.73;44.45;100448.41;2053015;28;74950;-62
2022/06/22 01:44:36;;;;;;;;;13.00;12.20;;;;;23.74;44.59;100456.41;2052725;28;74901;-62
2022/06/22 01:45:42;;;;;;;;;12.20;12.00;;;;;23.73;44.72;100451.13;2050987;28;75812;-62
2022/06/22 01:47:11;;;;;;;;;11.80;11.60;;;;;23.71;44.64;100458.50;2056455;28;76484;-62
2022/06/22 01:48:34;;;;;;;;;12.00;12.00;;;;;23.70;44.55;100454.09;2061696;28;73143;-62
2022/06/22 01:49:48;;;;;;;;;13.40;12.60;;;;;23.71;44.61;100459.38;2056221;28;76365;-62
2022/06/22 01:50:54;;;;;;;;;15.20;14.00;;;;;23.71;44.69;100459.38;2052653;28;76307;-62
2022/06/22 01:52:01;;;;;;;;;11.60;11.60;;;;;23.70;44.79;100457.66;2052837;28;76364;-63
2022/06/22 01:53:02;;;;;;;;;12.60;12.60;;;;;23.69;44.84;100458.63;2052764;28;75829;-62
2022/06/22 01:54:11;;;;;;;;;11.50;11.50;;;;;23.69;44.85;100461.34;2052312;28;76193;-62
2022/06/22 01:55:33;;;;;;;;;11.60;11.60;;;;;23.70;44.49;100462.22;2052424;28;75025;-63
2022/06/22 01:56:37;;;;;;;;;14.60;13.60;;;;;23.68;44.71;100466.91;2049360;28;75286;-62
2022/06/22 01:57:45;;;;;;;;;10.20;10.20;;;;;23.68;44.66;100469.59;2051566;28;74070;-62
2022/06/22 01:58:58;;;;;;;;;10.40;10.40;;;;;23.67;44.73;100466.03;2052175;28;76458;-62
2022/06/22 02:00:09;;;;;;;;;13.40;11.80;;;;;23.67;44.75;100465.16;2063779;28;76512;-62
2022/06/22 02:01:17;;;;;;;;;12.00;12.00;;;;;23.66;44.67;100468.88;2068483;28;74792;-62
2022/06/22 02:02:21;;;;;;;;;12.40;11.60;;;;;23.67;44.70;100462.47;2066196;28;75001;-62
2022/06/22 02:03:45;;;;;;;;;11.80;11.80;;;;;23.64;44.85;100477.13;2068487;28;76156;-61
2022/06/22 02:04:48;;;;;;;;;14.80;13.80;;;;;23.63;44.85;100475.41;2068579;28;75990;-62
2022/06/22 02:08:00;;;;;;;;;11.40;11.40;;;;;23.59;44.77;100479.31;2069043;28;76250;-62
2022/06/22 02:09:07;;;;;;;;;12.00;11.80;;;;;23.58;44.90;100479.44;2065752;28;75243;-62
2022/06/22 02:10:23;;;;;;;;;13.80;12.60;;;;;23.56;44.90;100487.66;2067925;28;75545;-62
2022/06/22 02:11:28;;;;;;;;;14.60;12.80;;;;;23.55;45.08;100482.38;2068508;28;76302;-62
2022/06/22 02:12:36;;;;;;;;;13.80;13.20;;;;;23.53;45.13;100485.22;2068519;28;74957;-62
2022/06/22 02:13:46;;;;;;;;;11.00;11.00;;;;;23.53;45.14;100490.63;2068075;28;74494;-62
2022/06/22 02:14:57;;;;;;;;;11.60;11.60;;;;;23.53;45.03;100500.59;2067290;28;75138;-62
2022/06/22 02:16:24;;;;;;;;;11.00;11.00;;;;;23.52;45.22;100491.59;2068545;28;75396;-62
2022/06/22 02:17:28;;;;;;;;;13.60;13.60;;;;;23.54;45.12;100491.47;2066958;28;75404;-62
2022/06/22 02:18:42;;;;;;;;;13.00;13.00;;;;;23.51;45.28;100499.88;2066713;28;74555;-62
2022/06/22 02:19:43;;;;;;;;;16.40;13.80;;;;;23.48;45.25;100490.09;2067905;28;74990;-63
2022/06/22 02:20:43;;;;;;;;;13.00;13.00;;;;;23.48;45.17;100487.41;2067976;28;74244;-62
2022/06/22 02:21:50;;;;;;;;;12.75;12.75;;;;;23.47;45.33;100491.94;2067287;28;76046;-63
2022/06/22 02:22:55;;;;;;;;;12.00;12.00;;;;;23.48;45.08;100490.09;2066078;28;76676;-62
2022/06/22 02:24:06;;;;;;;;;14.00;14.00;;;;;23.48;45.46;100487.41;2068494;28;75373;-62
2022/06/22 02:25:08;;;;;;;;;12.80;12.60;;;;;23.48;45.50;100485.56;2066556;28;74986;-62
2022/06/22 02:26:11;;;;;;;;;14.20;14.20;;;;;23.48;45.22;100485.56;2086074;28;74952;-62
2022/06/22 02:27:23;;;;;;;;;15.20;14.20;;;;;23.50;45.07;100488.13;2101736;27;75404;-62
2022/06/22 02:28:24;;;;;;;;;16.00;14.60;;;;;23.50;45.46;100480.00;2092615;27;77649;-62
2022/06/22 02:29:40;;;;;;;;;12.75;12.75;;;;;23.51;45.33;100481.75;2098553;28;76102;-62
2022/06/22 02:30:42;;;;;;;;;13.80;13.80;;;;;23.52;45.22;100482.63;2098452;27;76263;-62
2022/06/22 02:31:43;;;;;;;;;12.40;12.40;;;;;23.52;45.11;100463.66;2098470;27;74063;-62
2022/06/22 02:32:45;;;;;;;;;12.60;12.60;;;;;23.53;45.41;100457.25;2092278;28;76337;-62
2022/06/22 02:33:50;;;;;;;;;11.60;11.00;;;;;23.53;45.23;100449.13;2094269;28;76251;-62
2022/06/22 02:34:54;;;;;;;;;14.00;13.00;;;;;23.54;45.24;100456.28;2099035;28;76195;-62
2022/06/22 02:35:55;;;;;;;;;8.60;8.60;;;;;23.54;45.27;100454.41;2095479;28;76307;-62
2022/06/22 02:36:59;;;;;;;;;11.40;10.40;;;;;23.53;45.30;100452.69;2096997;28;76205;-63
2022/06/22 02:38:05;;;;;;;;;11.80;11.40;;;;;23.53;44.81;100458.13;2099487;28;76280;-62
2022/06/22 02:39:09;;;;;;;;;13.60;13.60;;;;;23.53;44.91;100454.56;2096336;28;74953;-62
2022/06/22 02:40:14;;;;;;;;;11.40;11.40;;;;;23.51;45.28;100462.81;2099946;28;73903;-62
2022/06/22 02:45:17;;;;;;;;;14.40;13.80;;;;;23.48;45.46;100465.72;2098563;28;74930;-61
2022/06/22 02:46:19;;;;;;;;;14.00;14.00;;;;;23.48;45.38;100471.16;2096622;27;76265;-62
2022/06/22 02:47:29;;;;;;;;;10.00;10.00;;;;;23.47;45.32;100466.72;2095615;28;76239;-62
2022/06/22 02:48:33;;;;;;;;;13.00;11.60;;;;;23.48;45.38;100468.44;2095641;28;75086;-62
2022/06/22 02:49:36;;;;;;;;;13.60;11.60;;;;;23.49;45.37;100467.44;2090756;28;75529;-62
2022/06/22 02:51:16;;;;;;;;;15.00;13.80;;;;;23.48;45.09;100466.59;2093494;28;75584;-62
2022/06/22 02:52:17;;;;;;;;;13.00;12.00;;;;;23.48;45.32;100471.16;2096203;28;75389;-62
2022/06/22 02:53:25;;;;;;;;;14.40;14.40;;;;;23.49;45.31;100464.75;2097775;28;76188;-61
2022/06/22 02:54:32;;;;;;;;;14.00;14.00;;;;;23.48;45.38;100463.88;2095877;28;75917;-62
2022/06/22 02:55:34;;;;;;;;;16.00;16.00;;;;;23.48;45.39;100463.88;2097038;28;75767;-61
2022/06/22 02:56:40;;;;;;;;;14.60;13.80;;;;;23.48;45.34;100466.59;2100126;27;74330;-63
2022/06/22 02:57:48;;;;;;;;;9.40;9.40;;;;;23.47;45.28;100459.44;2097682;28;76162;-63
2022/06/22 02:58:49;;;;;;;;;12.60;12.00;;;;;23.46;45.29;100460.44;2101844;28;75388;-62
2022/06/22 02:59:50;;;;;;;;;17.50;15.50;;;;;23.47;45.49;100458.59;2100143;27;75588;-63
2022/06/22 03:00:51;;;;;;;;;13.40;11.60;;;;;23.46;45.43;100455.03;2095532;27;75263;-63
2022/06/22 03:01:51;;;;;;;;;14.25;14.25;;;;;23.46;45.17;100448.75;2097674;28;75054;-62
2022/06/22 03:02:58;;;;;;;;;12.00;12.00;;;;;23.46;45.22;100440.63;2099814;28;75284;-62
2022/06/22 03:04:04;;;;;;;;;12.00;11.40;;;;;23.45;45.21;100447.03;2098113;28;76168;-62
2022/06/22 03:05:05;;;;;;;;;13.80;13.80;;;;;23.43;44.91;100440.88;2098006;28;76126;-64
2022/06/22 03:06:11;;;;;;;;;13.00;13.00;;;;;23.41;45.04;100438.28;2097280;28;76188;-64
2022/06/22 03:07:12;;;;;;;;;13.40;13.40;;;;;23.39;45.48;100434.00;2096738;28;76447;-64
2022/06/22 03:08:14;;;;;;;;;12.60;12.60;;;;;23.39;45.07;100434.84;2098780;28;75105;-62
2022/06/22 03:09:17;;;;;;;;;13.60;13.60;;;;;23.39;45.23;100432.13;2095903;28;74805;-63
2022/06/22 03:10:24;;;;;;;;;14.20;14.20;;;;;23.38;45.48;100427.72;2095922;28;75225;-63
2022/06/22 03:11:25;;;;;;;;;14.40;13.80;;;;;23.38;45.29;100427.72;2096857;28;76209;-64
2022/06/22 03:12:26;;;;;;;;;17.25;16.25;;;;;23.36;45.35;100417.97;2097626;28;74947;-63
2022/06/22 03:13:33;;;;;;;;;12.75;12.50;;;;;23.37;45.49;100412.41;2097636;28;74212;-63
2022/06/22 03:14:37;;;;;;;;;15.40;14.80;;;;;23.35;45.40;100406.25;2094359;28;74991;-63
2022/06/22 03:15:38;;;;;;;;;11.00;11.00;;;;;23.36;45.59;100415.25;2095087;28;75749;-63
2022/06/22 03:16:43;;;;;;;;;12.50;12.50;;;;;23.36;45.35;100417.97;2097717;28;74866;-63
2022/06/22 03:17:43;;;;;;;;;12.20;11.20;;;;;23.36;45.39;100417.97;2095477;28;74854;-63
2022/06/22 03:18:44;;;;;;;;;12.50;12.50;;;;;23.35;45.64;100419.81;2096288;28;76278;-63
2022/06/22 03:19:54;;;;;;;;;16.80;15.80;;;;;23.34;45.24;100420.78;2095247;28;74986;-63
2022/06/22 03:21:07;;;;;;;;;16.60;13.60;;;;;23.34;45.18;100420.78;2094508;28;76400;-62
2022/06/22 03:22:26;;;;;;;;;14.20;14.20;;;;;23.32;45.09;100422.75;2097472;28;74933;-62
2022/06/22 03:23:48;;;;;;;;;19.60;16.60;;;;;23.31;45.35;100420.19;2094683;28;76200;-62
2022/06/22 03:25:22;;;;;;;;;11.20;11.20;;;;;23.29;45.49;100420.31;2094858;28;76181;-62
2022/06/22 03:26:31;;;;;;;;;15.20;13.80;;;;;23.28;45.58;100415.88;2057162;28;74947;-62
2022/06/22 03:27:37;;;;;;;;;13.00;13.00;;;;;23.28;45.43;100417.72;2057797;28;76061;-62
2022/06/22 03:28:45;;;;;;;;;14.20;11.80;;;;;23.26;45.39;100415.16;2060194;28;75594;-63
2022/06/22 03:29:56;;;;;;;;;15.00;14.00;;;;;23.26;45.60;100408.88;2064435;28;73943;-63
2022/06/22 03:31:02;;;;;;;;;11.40;11.40;;;;;23.26;45.44;100407.03;2057694;28;76322;-63
2022/06/22 03:32:13;;;;;;;;;13.20;12.20;;;;;23.26;45.38;100412.44;2052896;28;74937;-63
2022/06/22 03:33:18;;;;;;;;;16.20;15.00;;;;;23.26;45.59;100403.44;2057562;28;76281;-63
2022/06/22 03:34:28;;;;;;;;;12.40;12.40;;;;;23.24;45.52;100400.84;2060382;28;75466;-63
2022/06/22 03:35:38;;;;;;;;;14.00;14.00;;;;;23.24;45.68;100400.84;2057268;28;75307;-62
2022/06/22 03:36:46;;;;;;;;;12.00;12.00;;;;;23.23;45.36;100392.84;2060181;28;75333;-63
2022/06/22 03:38:07;;;;;;;;;11.80;10.20;;;;;23.22;45.78;100396.53;2059952;28;76262;-63
2022/06/22 03:39:12;;;;;;;;;12.60;11.00;;;;;23.20;45.70;100397.53;2057816;28;76170;-63
2022/06/22 03:40:27;;;;;;;;;16.00;13.20;;;;;23.19;45.27;100403.06;2058921;28;76228;-62
2022/06/22 03:41:33;;;;;;;;;16.20;14.40;;;;;23.15;45.64;100413.28;2057632;28;74938;-63
2022/06/22 03:42:41;;;;;;;;;15.60;14.60;;;;;23.12;45.04;100413.53;2055234;28;76160;-63
2022/06/22 03:43:49;;;;;;;;;15.20;15.00;;;;;23.09;45.28;100410.19;2059860;28;75470;-63
2022/06/22 03:45:04;;;;;;;;;15.00;15.00;;;;;23.07;45.60;100402.19;2058234;28;76235;-62
2022/06/22 03:46:31;;;;;;;;;15.80;14.20;;;;;23.06;45.85;100396.91;2062426;28;75093;-62
2022/06/22 03:47:37;;;;;;;;;12.80;12.80;;;;;23.06;45.60;100392.34;2034370;28;76056;-62
2022/06/22 03:48:51;;;;;;;;;17.40;16.20;;;;;23.07;45.57;100398.63;2034209;28;75604;-62
2022/06/22 03:49:54;;;;;;;;;18.40;16.40;;;;;23.06;45.70;100396.91;2023685;29;75741;-63
2022/06/22 03:51:53;;;;;;;;;16.80;16.80;;;;;23.04;45.26;100404.28;2025896;28;73523;-63
2022/06/22 03:53:06;;;;;;;;;15.40;15.20;;;;;23.03;45.63;100398.00;2020243;29;75605;-62
2022/06/22 03:54:32;;;;;;;;;17.40;15.40;;;;;23.03;45.46;100414.25;2018000;29;75338;-62
2022/06/22 03:55:40;;;;;;;;;15.80;15.00;;;;;23.03;45.40;100407.97;2020030;29;74148;-62
2022/06/22 03:56:47;;;;;;;;;15.80;15.80;;;;;23.02;45.44;100406.25;2019568;29;74382;-63
2022/06/22 03:57:52;;;;;;;;;12.80;12.80;;;;;23.00;45.79;100403.66;2020567;29;75824;-63
2022/06/22 03:58:54;;;;;;;;;15.00;15.00;;;;;23.01;45.89;100407.22;2019921;29;75012;-63
2022/06/22 03:59:56;;;;;;;;;13.60;13.60;;;;;23.00;45.93;100400.09;2020084;29;75904;-63
2022/06/22 04:00:59;;;;;;;;;13.00;13.00;;;;;22.98;45.67;100399.34;2020061;29;75213;-63
2022/06/22 04:02:00;;;;;;;;;18.00;16.80;;;;;22.97;45.52;100398.47;2019409;29;76274;-63
2022/06/22 04:03:03;;;;;;;;;12.75;12.75;;;;;22.96;45.49;100404.88;2015926;29;76182;-62
2022/06/22 04:04:04;;;;;;;;;14.80;14.80;;;;;22.96;45.67;100409.41;2033095;28;76056;-62
2022/06/22 04:05:06;;;;;;;;;14.00;13.75;;;;;22.92;45.53;100406.09;2043939;28;74433;-62
2022/06/22 04:06:15;;;;;;;;;17.40;15.80;;;;;22.91;46.08;100398.97;2043205;28;75086;-62
2022/06/22 04:07:17;;;;;;;;;13.00;13.00;;;;;22.92;45.89;100400.69;2042983;28;74753;-63
2022/06/22 04:08:35;;;;;;;;;15.80;14.40;;;;;22.90;45.58;100398.09;2042931;28;76467;-63
2022/06/22 04:09:35;;;;;;;;;13.80;13.80;;;;;22.90;45.71;100397.25;2043170;28;76270;-63
2022/06/22 04:11:09;;;;;;;;;14.50;13.00;;;;;22.89;45.70;100407.22;2043584;28;74900;-62
2022/06/22 04:12:15;;;;;;;;;13.80;13.80;;;;;22.88;46.18;100412.75;2017671;29;76453;-63
2022/06/22 04:13:23;;;;;;;;;12.60;11.40;;;;;22.88;46.04;100410.91;2020605;29;75048;-62
2022/06/22 04:14:46;;;;;;;;;13.00;12.80;;;;;22.87;45.60;100414.59;2019602;29;76182;-62
2022/06/22 04:15:58;;;;;;;;;14.80;13.60;;;;;22.87;45.67;100417.28;2020155;29;75078;-62
2022/06/22 04:17:29;;;;;;;;;12.80;12.80;;;;;22.84;45.73;100411.22;2016713;29;75409;-62
2022/06/22 04:18:36;;;;;;;;;13.80;13.20;;;;;22.83;46.06;100410.38;2019660;29;75539;-62
2022/06/22 04:19:42;;;;;;;;;14.00;14.00;;;;;22.81;46.09;100415.00;2019902;29;75239;-63
2022/06/22 04:20:50;;;;;;;;;14.00;13.60;;;;;22.80;45.95;100412.44;2020189;29;74998;-63
2022/06/22 04:21:58;;;;;;;;;14.00;14.00;;;;;22.79;45.49;100416.13;2019560;29;76283;-62
2022/06/22 04:22:58;;;;;;;;;14.00;13.80;;;;;22.79;46.32;100408.00;2018172;29;75004;-62
2022/06/22 04:24:11;;;;;;;;;13.75;13.75;;;;;22.77;45.84;100416.25;2012950;29;73852;-62
2022/06/22 04:25:24;;;;;;;;;13.00;12.20;;;;;22.78;46.19;100409.84;2025914;28;74066;-62
2022/06/22 04:26:25;;;;;;;;;13.00;13.00;;;;;22.77;46.08;100410.84;2048956;28;75525;-62
2022/06/22 04:27:31;;;;;;;;;16.00;15.00;;;;;22.78;46.27;100409.84;2059689;28;74823;-63
2022/06/22 04:28:38;;;;;;;;;13.40;13.40;;;;;22.78;45.54;100414.41;2067987;28;75447;-63
2022/06/22 04:29:46;;;;;;;;;11.60;11.60;;;;;22.79;46.34;100416.13;2067319;28;74070;-62
2022/06/22 04:30:50;;;;;;;;;15.80;14.80;;;;;22.79;46.19;100437.75;2072641;28;76152;-62
2022/06/22 04:31:57;;;;;;;;;13.20;13.20;;;;;22.78;45.68;100446.84;2071930;28;75640;-65
2022/06/22 04:33:22;;;;;;;;;14.20;14.00;;;;;22.74;45.93;100445.34;2076115;28;76142;-62
2022/06/22 04:34:41;;;;;;;;;14.80;14.80;;;;;22.72;46.17;100440.06;2072900;28;75094;-63
2022/06/22 04:35:49;;;;;;;;;15.60;15.20;;;;;22.72;46.13;100429.25;2074371;28;76340;-62
2022/06/22 04:36:55;;;;;;;;;13.00;12.40;;;;;22.72;46.38;100422.97;2075552;28;75128;-62
2022/06/22 04:38:05;;;;;;;;;15.00;15.00;;;;;22.72;46.92;100421.13;2075647;28;74718;-63
2022/06/22 04:39:22;;;;;;;;;12.60;12.40;;;;;22.72;46.10;100423.81;2075115;28;76308;-62
2022/06/22 04:41:04;;;;;;;;;14.60;14.60;;;;;22.72;46.56;100421.13;2071265;28;75065;-62
2022/06/22 04:42:05;;;;;;;;;17.00;16.00;;;;;22.75;46.33;100422.75;2059471;28;75085;-62
2022/06/22 04:43:06;;;;;;;;;13.75;12.75;;;;;22.73;46.20;100428.25;2054281;28;76306;-61
2022/06/22 04:44:16;;;;;;;;;10.50;10.50;;;;;22.73;46.42;100425.56;2059314;28;76219;-62
2022/06/22 04:45:34;;;;;;;;;15.40;15.20;;;;;22.74;46.51;100429.13;2057610;28;78567;-62
2022/06/22 04:46:40;;;;;;;;;14.00;14.00;;;;;22.75;46.51;100425.47;2060897;28;76207;-62
2022/06/22 04:47:41;;;;;;;;;13.00;13.00;;;;;22.76;46.25;100425.34;2060955;28;76318;-63
2022/06/22 04:48:46;;;;;;;;;14.00;14.00;;;;;22.78;46.62;100434.19;2060966;28;75819;-62
2022/06/22 04:50:11;;;;;;;;;14.00;13.60;;;;;22.78;45.96;100426.06;2059739;28;73442;-63
2022/06/22 04:51:26;;;;;;;;;15.40;15.20;;;;;22.80;46.14;100428.66;2072173;28;76376;-60
2022/06/22 04:52:34;;;;;;;;;14.60;14.60;;;;;22.79;46.21;100427.81;2076132;28;75086;-59
2022/06/22 04:53:41;;;;;;;;;15.00;15.00;;;;;22.81;46.39;100419.56;2071754;28;75401;-60
2022/06/22 04:54:43;;;;;;;;;15.60;13.80;;;;;22.80;46.31;100410.59;2071009;28;76219;-60
2022/06/22 04:55:44;;;;;;;;;16.00;15.60;;;;;22.80;45.97;100405.19;2071580;28;75402;-60
2022/06/22 04:56:50;;;;;;;;;17.20;17.20;;;;;22.79;46.35;100405.28;2072279;28;75728;-59
2022/06/22 04:57:54;;;;;;;;;12.20;12.20;;;;;22.78;45.99;100408.97;2069633;28;75638;-59
2022/06/22 04:58:57;;;;;;;;;15.20;13.60;;;;;22.78;46.62;100415.25;2073446;28;76266;-60
2022/06/22 05:00:07;;;;;;;;;15.00;14.80;;;;;22.79;46.12;100418.81;2071556;28;74776;-59
2022/06/22 05:01:15;;;;;;;;;14.80;14.80;;;;;22.78;45.98;100417.97;2071804;28;74062;-58
2022/06/22 05:02:21;;;;;;;;;13.20;12.80;;;;;22.77;46.54;100424.34;2075956;28;75671;-59
2022/06/22 05:03:21;;;;;;;;;12.80;12.80;;;;;22.78;45.96;100422.50;2072953;28;75043;-59
2022/06/22 05:04:29;;;;;;;;;13.25;12.25;;;;;22.78;46.35;100417.97;2074216;28;74299;-59
2022/06/22 05:05:34;;;;;;;;;12.80;12.80;;;;;22.78;46.56;100412.56;2062812;28;74508;-61
2022/06/22 05:06:45;;;;;;;;;15.40;14.80;;;;;22.80;46.46;100407.88;2073024;28;76560;-59
2022/06/22 05:08:36;;;;;;;;;16.00;16.00;;;;;22.81;46.54;100414.16;2092544;27;1263304;-59
2022/06/22 05:09:43;;;;;;;;;14.40;14.40;;;;;22.81;46.32;100412.31;2123334;27;75430;-59
2022/06/22 05:11:41;;;;;;;;;12.60;12.60;;;;;22.82;46.40;100403.22;2084065;27;45017;-59
2022/06/22 05:12:49;;;;;;;;;16.40;14.80;;;;;22.83;46.39;100409.50;2098541;28;76202;-60
2022/06/22 05:13:53;;;;;;;;;18.00;16.40;;;;;22.84;46.29;100403.97;2095736;28;75325;-58
2022/06/22 05:14:58;;;;;;;;;14.20;12.00;;;;;22.86;46.08;100411.97;2094435;28;74273;-59
2022/06/22 05:16:01;;;;;;;;;13.00;13.00;;;;;22.85;46.28;100410.25;2097175;28;74847;-58
2022/06/22 05:17:05;;;;;;;;;16.40;16.00;;;;;22.88;46.21;100418.16;2099752;27;75823;-57
2022/06/22 05:18:18;;;;;;;;;16.40;16.40;;;;;22.87;46.41;100419.13;2081253;28;86567;-59
2022/06/22 05:19:22;;;;;;;;;14.80;14.00;;;;;22.88;46.37;100412.75;2076518;28;75049;-60
2022/06/22 05:22:15;;;;;;;;;17.80;17.80;;;;;22.86;46.13;100412.84;2093624;27;45374;-59
2022/06/22 05:23:18;;;;;;;;;13.60;13.60;;;;;22.86;46.29;100414.69;2093424;27;74234;-59
2022/06/22 05:24:51;;;;;;;;;11.20;11.20;;;;;22.87;45.86;100413.72;2087805;27;75720;-59
2022/06/22 05:25:55;;;;;;;;;15.20;12.40;;;;;22.86;46.31;100412.84;2063325;28;73729;-58